Flight Track Log - Related Links

Times and Time Zones

All times are in EST time to prevent confusion due to time zone crossing. See the SKW6195 flight status page for this flight to view local times or setup timezone preferences in your user account.


Time Position Orientation Groundspeed Altitude Reporting Facility
EST Latitude Longitude Course Direction KTS MPH feet Rate Location/Type
Fri 01:50:07 PM 39.8500 -104.7500 323° Northwest 198 228 6,800  Level Denver TRACON
Fri 01:51:07 PM 39.8667 -104.8167 288° West 216 249 8,700 1,826 Climbing Denver TRACON
Fri 01:52:00 PM 40.0858 -105.0045 311° West  Level Estimated
Fri 01:52:02 PM 39.9000 -104.9000 298° West 261 300 10,300  Level Denver TRACON
Fri 01:53:00 PM 40.1603 -105.1155 323° Northwest  Level Estimated
Fri 01:53:02 PM 39.9833 -104.9333 343° North 311 358 12,300  Level Denver TRACON
Fri 01:53:34 PM 40.0133 -104.9242 13° North 312 359 13,000 1,895 Climbing Denver Center
Fri 01:54:00 PM 40.2347 -105.2266 330° Northwest  Level Estimated
Fri 01:54:37 PM 40.1272 -104.9139 North 330 380 15,300  Level Denver Center
Fri 01:55:00 PM 40.3090 -105.3381 323° Northwest  Level Estimated
Fri 01:55:39 PM 40.2242 -104.9203 357° North 351 404 16,900  Level Denver Center
Fri 01:56:41 PM 40.3239 -104.9478 348° North 366 421 18,800 1,588 Climbing Denver Center
Fri 01:57:55 PM 40.4333 -104.9803 347° North 378 435 20,500 1,544 Climbing Denver Center
Fri 01:58:57 PM 40.5681 -105.0133 349° North 399 459 22,300 1,597 Climbing Denver Center
Fri 01:59:59 PM 40.6783 -105.0486 346° North 410 472 23,800 1,440 Climbing Denver Center
Fri 02:01:02 PM 40.7833 -105.0828 346° North 386 444 25,300 1,200 Climbing Denver Center
Fri 02:02:04 PM 40.8606 -105.1756 318° Northwest 374 430 26,300 968 Climbing Denver Center
Fri 02:03:06 PM 40.9397 -105.2653 319° Northwest 375 432 27,300 1,016 Climbing Denver Center
Fri 02:04:08 PM 41.0375 -105.3758 320° Northwest 383 441 28,400 919 Climbing Denver Center
Fri 02:05:10 PM 41.1183 -105.4675 320° Northwest 395 455 29,200 774 Climbing Denver Center
Fri 02:06:12 PM 41.2133 -105.5800 318° Northwest 406 467 30,000 774 Climbing Denver Center
Fri 02:07:14 PM 41.2800 -105.6925 308° West 404 465 30,800 726 Climbing Denver Center
Fri 02:08:16 PM 41.3361 -105.7839 309° West 401 461 31,500 823 Climbing Denver Center
Fri 02:09:18 PM 41.4283 -105.9344 309° West 409 471 32,500 871 Climbing Denver Center
Fri 02:10:20 PM 41.4942 -106.0461 308° West 403 464 33,300 726 Climbing Denver Center
Fri 02:11:22 PM 41.5717 -106.1789 308° West 405 466 34,000 339 Climbing Denver Center
Fri 02:12:24 PM 41.6411 -106.2950 309° West 412 474 34,000  Level Denver Center
Fri 02:13:26 PM 41.7247 -106.4372 308° West 429 494 34,000 48 Level Denver Center
Fri 02:14:28 PM 41.8008 -106.5661 308° West 438 504 34,100 145 Climbing Denver Center
Fri 02:15:30 PM 41.8742 -106.6914 308° West 445 512 34,300 394 Climbing Denver Center
Fri 02:16:45 PM 41.9708 -106.8575 308° West 443 510 35,000 526 Climbing Denver Center
Fri 02:17:47 PM 42.0539 -107.0019 308° West 440 506 35,500 484 Climbing Denver Center
Fri 02:18:49 PM 42.1239 -107.1261 307° West 436 502 36,000 532 Climbing Denver Center
Fri 02:19:51 PM 42.2067 -107.2717 308° West 439 505 36,600 532 Climbing Denver Center
Fri 02:20:53 PM 42.2772 -107.3953 308° West 436 502 37,100 387 Climbing Denver Center
Fri 02:21:55 PM 42.3594 -107.5400 308° West 437 503 37,400 327 Climbing Denver Center
Fri 02:22:43 PM 42.4189 -107.6458 307° West 441 507 37,700 327 Climbing Salt Lake Center
Fri 02:23:45 PM 42.4897 -107.7717 307° West 441 507 38,000 145 Climbing Salt Lake Center
Fri 02:24:47 PM 42.5719 -107.9183 307° West 439 505 38,000  Level Salt Lake Center
Fri 02:25:49 PM 42.6408 -108.0417 307° West 433 498 38,000  Level Salt Lake Center
Fri 02:26:51 PM 42.7219 -108.1911 306° West 439 505 38,000  Level Salt Lake Center
Fri 02:27:53 PM 42.7908 -108.3161 307° West 435 501 38,000  Level Salt Lake Center
Fri 02:28:55 PM 42.8717 -108.4622 307° West 434 499 38,000  Level Salt Lake Center
Fri 02:29:57 PM 42.9400 -108.5881 307° West 433 498 38,000  Level Salt Lake Center
Fri 02:30:59 PM 43.0078 -108.7128 307° West 430 495 38,000  Level Salt Lake Center
Fri 02:32:01 PM 43.0789 -108.8453 306° West 432 497 38,000  Level Salt Lake Center
Fri 02:33:03 PM 43.1639 -109.0025 307° West 429 494 38,000  Level Salt Lake Center
Fri 02:34:05 PM 43.2344 -109.1328 307° West 426 490 38,000  Level Salt Lake Center
Fri 02:35:07 PM 43.3044 -109.2639 306° West 427 491 38,000  Level Salt Lake Center
Fri 02:36:09 PM 43.3739 -109.3933 306° West 422 486 38,000  Level Salt Lake Center
Fri 02:37:11 PM 43.4442 -109.5256 306° West 427 491 38,000  Level Salt Lake Center
Fri 02:38:12 PM 43.5206 -109.6694 306° West 427 491 38,000  Level Salt Lake Center
Fri 02:39:14 PM 43.5864 -109.7956 306° West 424 488 38,000  Level Salt Lake Center
Fri 02:40:16 PM 43.6650 -109.9419 307° West 425 489 38,000  Level Salt Lake Center
Fri 02:41:18 PM 43.7308 -110.0700 305° West 426 490 38,000  Level Salt Lake Center
Fri 02:42:20 PM 43.8092 -110.2203 306° West 431 496 38,000  Level Salt Lake Center
Fri 02:43:22 PM 43.8756 -110.3481 306° West 429 494 38,000  Level Salt Lake Center
Fri 02:44:24 PM 43.9522 -110.4989 305° West 429 494 38,000  Level Salt Lake Center
Fri 02:45:26 PM 44.0183 -110.6292 305° West 430 495 38,000  Level Salt Lake Center
Fri 02:46:28 PM 44.0953 -110.7803 305° West 429 494 38,000  Level Salt Lake Center
Fri 02:47:30 PM 44.1603 -110.9100 305° West 426 490 38,000  Level Salt Lake Center
Fri 02:48:32 PM 44.2367 -111.0622 305° West 427 491 38,000  Level Salt Lake Center
Fri 02:49:34 PM 44.3025 -111.1933 305° West 429 494 38,000  Level Salt Lake Center
Fri 02:50:36 PM 44.3681 -111.3247 305° West 429 494 38,000  Level Salt Lake Center
Fri 02:51:37 PM 44.4447 -111.4803 305° West 430 495 38,000  Level Salt Lake Center
Fri 02:52:39 PM 44.5125 -111.6158 305° West 432 497 38,000  Level Salt Lake Center
Fri 02:53:41 PM 44.5781 -111.7503 304° West 432 497 38,000  Level Salt Lake Center
Fri 02:54:43 PM 44.6544 -111.9056 305° West 431 496 38,000  Level Salt Lake Center
Fri 02:55:45 PM 44.7189 -112.0403 304° West 432 497 38,000  Level Salt Lake Center
Fri 02:56:47 PM 44.7936 -112.1956 304° West 428 493 38,000  Level Salt Lake Center
Fri 02:57:49 PM 44.8589 -112.3292 305° West 431 496 38,000  Level Salt Lake Center
Fri 02:58:51 PM 44.9317 -112.4822 304° West 423 487 38,000  Level Salt Lake Center
Fri 02:59:53 PM 44.9939 -112.6158 303° West 425 489 38,000  Level Salt Lake Center
Fri 03:00:54 PM 45.0669 -112.7681 304° West 421 484 38,000  Level Salt Lake Center
Fri 03:01:56 PM 45.1289 -112.8989 304° West 419 482 38,000  Level Salt Lake Center
Fri 03:02:58 PM 45.1897 -113.0294 304° West 416 479 38,000  Level Salt Lake Center
Fri 03:04:00 PM 45.2589 -113.1803 303° West 409 471 38,000  Level Salt Lake Center
Fri 03:05:02 PM 45.3217 -113.3103 305° West 415 478 38,000  Level Salt Lake Center
Fri 03:06:04 PM 45.3911 -113.4625 303° West 409 471 38,000  Level Salt Lake Center
Fri 03:07:06 PM 45.4556 -113.6022 303° West 410 472 38,000  Level Salt Lake Center
Fri 03:08:08 PM 45.5172 -113.7383 303° West 404 465 38,000  Level Salt Lake Center
Fri 03:09:09 PM 45.5800 -113.8761 303° West 407 468 38,000  Level Salt Lake Center
Fri 03:10:11 PM 45.6389 -114.0011 304° West 408 470 38,000  Level Salt Lake Center
Fri 03:11:13 PM 45.7003 -114.1347 303° West 404 465 38,000 -48 Level Salt Lake Center
Fri 03:12:15 PM 45.7728 -114.2975 303° West 405 466 37,900 -48 Descending Salt Lake Center
Fri 03:13:17 PM 45.8347 -114.4336 303° West 407 468 37,900 48 Level Salt Lake Center
Fri 03:14:19 PM 45.8936 -114.5708 302° West 406 467 38,000 48 Climbing Salt Lake Center
Fri 03:15:21 PM 45.9547 -114.7056 303° West 404 465 38,000  Level Salt Lake Center
Fri 03:16:23 PM 46.0150 -114.8436 302° West 406 467 38,000  Level Salt Lake Center
Fri 03:17:24 PM 46.0756 -114.9803 303° West 405 466 38,000  Level Salt Lake Center
Fri 03:18:03 PM 46.1117 -115.0664 301° West 403 464 38,000 -60 Level Seattle Center
Fri 03:19:04 PM 46.1722 -115.2042 302° West 407 468 37,900 -49 Descending Seattle Center
Fri 03:20:05 PM 46.2436 -115.3694 302° West 406 467 37,900 49 Level Seattle Center
Fri 03:21:06 PM 46.3028 -115.5094 301° West 407 468 38,000  Climbing Seattle Center
Fri 03:22:07 PM 46.3622 -115.6467 302° West 405 466 37,900 -49 Descending Seattle Center
Fri 03:23:08 PM 46.4203 -115.7847 301° West 404 465 37,900 49 Level Seattle Center
Fri 03:24:09 PM 46.4772 -115.9211 301° West 398 458 38,000  Climbing Seattle Center
Fri 03:25:10 PM 46.5364 -116.0589 302° West 401 461 37,900  Descending Seattle Center
Fri 03:26:11 PM 46.5942 -116.1961 302° West 400 460 38,000  Climbing Seattle Center
Fri 03:27:12 PM 46.6519 -116.3350 301° West 400 460 37,900  Descending Seattle Center
Fri 03:28:12 PM 46.7092 -116.4742 301° West 402 463 38,000  Climbing Seattle Center
Fri 03:29:13 PM 46.7672 -116.6144 301° West 402 463 37,900  Descending Seattle Center
Fri 03:30:14 PM 46.8253 -116.7547 301° West 404 465 38,000 49 Climbing Seattle Center
Fri 03:31:15 PM 46.8825 -116.8944 301° West 403 464 38,000  Level Seattle Center
Fri 03:32:16 PM 46.9403 -117.0361 301° West 405 466 38,000  Level Seattle Center
Fri 03:33:17 PM 46.9978 -117.1767 301° West 402 463 38,000  Level Seattle Center
Fri 03:34:18 PM 47.0544 -117.3183 300° West 402 463 38,000  Level Seattle Center
Fri 03:35:19 PM 47.1211 -117.4844 301° West 395 455 38,000  Level Seattle Center
Fri 03:36:20 PM 47.1772 -117.6244 301° West 395 455 38,000  Level Seattle Center
Fri 03:37:21 PM 47.2328 -117.7647 300° West 396 456 38,000  Level Seattle Center
Fri 03:38:22 PM 47.2886 -117.9053 300° West 398 458 38,000  Level Seattle Center
Fri 03:39:23 PM 47.3439 -118.0450 300° West 395 455 38,000  Level Seattle Center
Fri 03:40:24 PM 47.3981 -118.1864 300° West 395 455 38,000  Level Seattle Center
Fri 03:41:25 PM 47.4503 -118.3283 299° West 395 455 38,000  Level Seattle Center
Fri 03:42:26 PM 47.5058 -118.4692 300° West 398 458 38,000 -49 Level Seattle Center
Fri 03:43:27 PM 47.5597 -118.6119 299° West 399 459 37,900  Descending Seattle Center
Fri 03:44:28 PM 47.6144 -118.7536 300° West 398 458 38,000  Climbing Seattle Center
Fri 03:45:29 PM 47.6700 -118.8989 300° West 400 460 37,900 -541 Descending Seattle Center
Fri 03:46:30 PM 47.7231 -119.0428 299° West 403 464 36,900 -885 Descending Seattle Center
Fri 03:47:31 PM 47.7786 -119.1878 300° West 405 466 36,100 -885 Descending Seattle Center
Fri 03:48:32 PM 47.8311 -119.3267 299° West 392 451 35,100 -885 Descending Seattle Center
Fri 03:49:33 PM 47.8811 -119.4628 299° West 380 437 34,300 -934 Descending Seattle Center
Fri 03:50:34 PM 47.9400 -119.6228 299° West 371 427 33,200 -984 Descending Seattle Center
Fri 03:51:35 PM 47.9881 -119.7561 298° West 367 422 32,300 -893 Descending Seattle Center
Fri 03:52:35 PM 48.0367 -119.8878 299° West 365 420 31,400 -893 Descending Seattle Center
Fri 03:53:36 PM 48.0844 -120.0211 298° West 364 419 30,500 -885 Descending Seattle Center
Fri 03:54:37 PM 48.1308 -120.1536 298° West 362 417 29,600 -885 Descending Seattle Center
Fri 03:55:38 PM 48.1567 -120.2994 285° West 363 418 28,700 -885 Descending Seattle Center
Fri 03:56:39 PM 48.1836 -120.4461 285° West 365 420 27,800 -885 Descending Seattle Center
Fri 03:57:40 PM 48.2092 -120.5933 285° West 366 421 26,900 -984 Descending Seattle Center
Fri 03:58:41 PM 48.2358 -120.7414 285° West 367 422 25,800 -976 Descending Seattle Center
Fri 03:59:43 PM 48.2647 -120.8894 286° West 372 428 24,900 -1,024 Descending Seattle Center
Fri 04:00:44 PM 48.2958 -121.0708 285° West 375 432 23,700 -1,082 Descending Seattle Center
Fri 04:01:45 PM 48.3206 -121.2231 284° West 377 434 22,700 -984 Descending Seattle Center
Fri 04:02:46 PM 48.3461 -121.3739 284° West 375 432 21,700 -992 Descending Seattle Center
Fri 04:03:46 PM 48.3714 -121.5275 284° West 378 435 20,700 -992 Descending Seattle Center
Fri 04:04:47 PM 48.3956 -121.6750 284° West 367 422 19,700 -984 Descending Seattle Center
Fri 04:05:48 PM 48.4400 -121.7975 299° West 340 391 18,700 -1,180 Descending Seattle Center
Fri 04:06:49 PM 48.4939 -121.9083 306° West 332 382 17,300 -1,230 Descending Seattle Center
Fri 04:07:50 PM 48.5458 -122.0172 306° West 325 374 16,200 -1,033 Descending Seattle Center
Fri 04:08:51 PM 48.5969 -122.1264 305° West 321 369 15,200 -1,179 Descending Seattle Center
Fri 04:09:47 PM 48.6333 -122.2667 291° West 320 368 13,900 -1,190 Descending Vancouver Center
Fri 04:10:47 PM 48.6667 -122.3833 293° West 330 380 12,900 -950 Descending Vancouver Center
Fri 04:11:47 PM 48.7000 -122.5167 291° West 330 380 12,000 -850 Descending Vancouver Center
Fri 04:12:47 PM 48.7500 -122.6167 307° West 320 368 11,200 -1,000 Descending Vancouver Center
Fri 04:13:47 PM 48.8167 -122.7167 315° West 320 368 10,000 -595 Descending Vancouver Center
Fri 04:14:48 PM 48.8667 -122.8167 307° West 330 380 10,000  Level Vancouver Center
Fri 04:15:48 PM 48.9333 -122.9167 315° West 340 391 10,000  Level Vancouver Center
Fri 04:16:48 PM 48.9833 -123.0167 307° West 310 357 10,000 -50 Level Vancouver Center
Fri 04:17:48 PM 49.0333 -123.1167 307° West 290 334 9,900 -800 Descending Vancouver Center
Fri 04:18:48 PM 49.0667 -123.2167 297° West 250 288 8,400 -1,700 Descending Vancouver Center
Fri 04:19:48 PM 49.0833 -123.2833 291° West 240 276 6,500 -2,000 Descending Vancouver Center
Fri 04:20:48 PM 49.1000 -123.3833 284° West 240 276 4,400 -1,750 Descending Vancouver Center
Fri 04:21:48 PM 49.1333 -123.4667 301° West 230 265 3,000 -1,200 Descending Vancouver Center
Fri 04:22:48 PM 49.1833 -123.4500 12° North 210 242 2,000 -500 Descending Vancouver Center
Fri 04:23:48 PM 49.2000 -123.3667 73° East 190 219 2,000 -250 Level Vancouver Center
Fri 04:24:48 PM 49.2000 -123.3167 90° East 170 196 1,500 -700 Descending Vancouver Center
Fri 04:25:48 PM 49.1833 -123.2333 107° East 130 150 600 -900 Descending Vancouver Center

Login

Don't have an account? Register now (free) for customized features, flight alerts, and more!